sensor_id;sensor_type;location;lat;lon;timestamp;pressure;altitude;pressure_sealevel;temperature;humidity
8451;BME280;4262;50.980;13.892;2023-02-14T04:33:13;50288.78;;;-142.97;23.01
8451;BME280;4262;50.980;13.892;2023-02-14T04:35:39;50271.25;;;-142.97;23.39
8451;BME280;4262;50.980;13.892;2023-02-14T04:38:06;50251.75;;;-142.97;23.25
8451;BME280;4262;50.980;13.892;2023-02-14T04:40:33;50300.50;;;-142.97;23.32
8451;BME280;4262;50.980;13.892;2023-02-14T04:43:01;50279.03;;;-142.97;23.03
8451;BME280;4262;50.980;13.892;2023-02-14T04:45:29;50271.25;;;-142.97;22.86
8451;BME280;4262;50.980;13.892;2023-02-14T04:47:56;50316.09;;;-142.97;23.04
8451;BME280;4262;50.980;13.892;2023-02-14T04:50:24;50282.94;;;-142.97;23.56
8451;BME280;4262;50.980;13.892;2023-02-14T04:52:53;50284.91;;;-142.97;23.44
8451;BME280;4262;50.980;13.892;2023-02-14T04:55:19;50288.78;;;-142.97;23.15
8451;BME280;4262;50.980;13.892;2023-02-14T04:57:46;50277.09;;;-142.97;23.28
8451;BME280;4262;50.980;13.892;2023-02-14T05:00:14;50271.25;;;-142.97;22.84
8451;BME280;4262;50.980;13.892;2023-02-14T05:02:40;50273.19;;;-142.97;23.29
8451;BME280;4262;50.980;13.892;2023-02-14T05:05:09;50277.09;;;-142.97;23.24
8451;BME280;4262;50.980;13.892;2023-02-14T05:07:37;50312.19;;;-142.97;23.16
8451;BME280;4262;50.980;13.892;2023-02-14T05:10:05;50298.53;;;-142.97;23.52
8451;BME280;4262;50.980;13.892;2023-02-14T05:12:32;50288.78;;;-142.97;23.32
8451;BME280;4262;50.980;13.892;2023-02-14T05:14:59;50316.09;;;-142.97;23.44
8451;BME280;4262;50.980;13.892;2023-02-14T05:17:25;50281.00;;;-142.97;23.49
8451;BME280;4262;50.980;13.892;2023-02-14T05:19:52;50273.19;;;-142.97;23.53
8451;BME280;4262;50.980;13.892;2023-02-14T05:22:19;50302.44;;;-142.97;23.72
8451;BME280;4262;50.980;13.892;2023-02-14T05:24:48;50306.34;;;-142.97;23.72
8451;BME280;4262;50.980;13.892;2023-02-14T05:27:15;50298.53;;;-142.97;23.74
8451;BME280;4262;50.980;13.892;2023-02-14T05:29:42;50290.75;;;-142.97;23.35
8451;BME280;4262;50.980;13.892;2023-02-14T05:32:09;50306.34;;;-142.97;23.71
8451;BME280;4262;50.980;13.892;2023-02-14T05:34:37;50312.19;;;-142.97;23.83
8451;BME280;4262;50.980;13.892;2023-02-14T05:37:04;50302.44;;;-142.97;23.61
8451;BME280;4262;50.980;13.892;2023-02-14T05:39:30;50259.56;;;-142.97;23.46
8451;BME280;4262;50.980;13.892;2023-02-14T05:41:58;50294.63;;;-142.97;24.36
8451;BME280;4262;50.980;13.892;2023-02-14T05:44:25;50302.44;;;-142.97;24.48
8451;BME280;4262;50.980;13.892;2023-02-14T05:46:52;50286.84;;;-142.97;24.33
8451;BME280;4262;50.980;13.892;2023-02-14T05:49:19;50304.38;;;-142.97;23.48
8451;BME280;4262;50.980;13.892;2023-02-14T05:51:46;50290.75;;;-142.97;23.68
8451;BME280;4262;50.980;13.892;2023-02-14T05:54:14;50271.25;;;-142.97;23.88
8451;BME280;4262;50.980;13.892;2023-02-14T05:56:40;50290.75;;;-142.97;23.52
8451;BME280;4262;50.980;13.892;2023-02-14T05:59:08;50306.34;;;-142.97;23.51
8451;BME280;4262;50.980;13.892;2023-02-14T06:01:35;50304.38;;;-142.97;24.06
8451;BME280;4262;50.980;13.892;2023-02-14T06:04:03;50267.34;;;-142.97;23.80
8451;BME280;4262;50.980;13.892;2023-02-14T06:06:30;50314.13;;;-142.97;23.63
8451;BME280;4262;50.980;13.892;2023-02-14T06:08:58;50282.94;;;-142.97;23.71
8451;BME280;4262;50.980;13.892;2023-02-14T06:11:24;50290.75;;;-142.97;24.29
8451;BME280;4262;50.980;13.892;2023-02-14T06:13:53;50318.03;;;-142.97;23.85
8451;BME280;4262;50.980;13.892;2023-02-14T06:16:20;50281.00;;;-142.97;23.34
8451;BME280;4262;50.980;13.892;2023-02-14T06:18:47;50279.03;;;-142.97;23.61
8451;BME280;4262;50.980;13.892;2023-02-14T06:21:14;50327.78;;;-142.97;23.54
8451;BME280;4262;50.980;13.892;2023-02-14T06:23:40;50302.44;;;-142.97;23.50
8451;BME280;4262;50.980;13.892;2023-02-14T06:26:07;50294.63;;;-142.97;23.56
8451;BME280;4262;50.980;13.892;2023-02-14T06:28:34;50298.53;;;-142.97;23.65
8451;BME280;4262;50.980;13.892;2023-02-14T06:31:00;50308.28;;;-142.97;23.40
8451;BME280;4262;50.980;13.892;2023-02-14T06:33:28;50284.91;;;-142.97;23.58
8451;BME280;4262;50.980;13.892;2023-02-14T06:35:57;50282.94;;;-142.97;23.76
8451;BME280;4262;50.980;13.892;2023-02-14T06:38:25;50263.44;;;-142.97;23.81
8451;BME280;4262;50.980;13.892;2023-02-14T06:40:51;50298.53;;;-142.97;23.84
8451;BME280;4262;50.980;13.892;2023-02-14T06:43:18;50281.00;;;-142.97;24.04
8451;BME280;4262;50.980;13.892;2023-02-14T06:45:45;50279.03;;;-142.97;23.55
8451;BME280;4262;50.980;13.892;2023-02-14T06:48:12;50320.00;;;-142.97;23.63
8451;BME280;4262;50.980;13.892;2023-02-14T06:50:40;50277.09;;;-142.97;23.62
8451;BME280;4262;50.980;13.892;2023-02-14T06:53:06;50314.13;;;-142.97;23.47
8451;BME280;4262;50.980;13.892;2023-02-14T06:55:33;50304.38;;;-142.97;23.68
8451;BME280;4262;50.980;13.892;2023-02-14T06:57:59;50321.94;;;-142.97;23.97
8451;BME280;4262;50.980;13.892;2023-02-14T07:00:26;50300.50;;;-142.97;24.02
8451;BME280;4262;50.980;13.892;2023-02-14T07:02:52;50279.03;;;-142.97;24.38
8451;BME280;4262;50.980;13.892;2023-02-14T07:05:19;50290.75;;;-142.97;24.42
8451;BME280;4262;50.980;13.892;2023-02-14T07:07:47;50290.75;;;-142.97;23.71
8451;BME280;4262;50.980;13.892;2023-02-14T07:10:15;50265.41;;;-142.97;23.98
8451;BME280;4262;50.980;13.892;2023-02-14T07:12:42;50292.69;;;-142.97;23.27
8451;BME280;4262;50.980;13.892;2023-02-14T07:15:11;50306.34;;;-142.97;23.73
8451;BME280;4262;50.980;13.892;2023-02-14T07:17:38;50296.59;;;-142.97;23.42
8451;BME280;4262;50.980;13.892;2023-02-14T07:20:06;50271.25;;;-142.97;23.88
8451;BME280;4262;50.980;13.892;2023-02-14T07:22:34;50314.13;;;-142.97;23.69
8451;BME280;4262;50.980;13.892;2023-02-14T07:25:04;50269.28;;;-142.97;23.39
8451;BME280;4262;50.980;13.892;2023-02-14T07:27:32;50290.75;;;-142.97;23.99
8451;BME280;4262;50.980;13.892;2023-02-14T07:29:58;50302.44;;;-142.97;23.78
8451;BME280;4262;50.980;13.892;2023-02-14T07:32:25;50290.75;;;-142.97;23.28
8451;BME280;4262;50.980;13.892;2023-02-14T07:34:53;50265.41;;;-142.97;23.54
8451;BME280;4262;50.980;13.892;2023-02-14T07:37:20;50302.44;;;-142.97;22.89
8451;BME280;4262;50.980;13.892;2023-02-14T07:39:46;50269.28;;;-142.97;23.55
8451;BME280;4262;50.980;13.892;2023-02-14T07:42:15;50306.34;;;-142.97;23.46
8451;BME280;4262;50.980;13.892;2023-02-14T07:44:43;50271.25;;;-142.97;24.14
8451;BME280;4262;50.980;13.892;2023-02-14T07:47:11;50308.28;;;-142.97;24.13
8451;BME280;4262;50.980;13.892;2023-02-14T07:49:37;50294.63;;;-142.97;23.46
8451;BME280;4262;50.980;13.892;2023-02-14T07:52:04;50269.28;;;-142.97;23.35
8451;BME280;4262;50.980;13.892;2023-02-14T07:54:30;50282.94;;;-142.97;23.58
8451;BME280;4262;50.980;13.892;2023-02-14T07:56:57;50284.91;;;-142.97;23.36
8451;BME280;4262;50.980;13.892;2023-02-14T07:59:25;50312.19;;;-142.97;23.30
8451;BME280;4262;50.980;13.892;2023-02-14T08:01:52;50273.19;;;-142.97;23.20
8451;BME280;4262;50.980;13.892;2023-02-14T08:04:21;50282.94;;;-142.97;23.12
8451;BME280;4262;50.980;13.892;2023-02-14T08:06:50;50286.84;;;-142.97;23.15
8451;BME280;4262;50.980;13.892;2023-02-14T08:09:17;50286.84;;;-142.97;23.19
8451;BME280;4262;50.980;13.892;2023-02-14T08:11:49;50277.09;;;-142.97;23.58
8451;BME280;4262;50.980;13.892;2023-02-14T08:14:35;50308.28;;;-142.97;23.51
8451;BME280;4262;50.980;13.892;2023-02-14T08:17:02;50275.16;;;-142.97;23.72
8451;BME280;4262;50.980;13.892;2023-02-14T08:19:29;50281.00;;;-142.97;23.42
8451;BME280;4262;50.980;13.892;2023-02-14T08:21:56;50271.25;;;-142.97;23.02
8451;BME280;4262;50.980;13.892;2023-02-14T08:24:24;50310.25;;;-142.97;23.05
8451;BME280;4262;50.980;13.892;2023-02-14T08:26:51;50257.59;;;-142.97;23.24
8451;BME280;4262;50.980;13.892;2023-02-14T08:29:18;50261.50;;;-142.97;23.12
8451;BME280;4262;50.980;13.892;2023-02-14T08:31:46;50300.50;;;-142.97;23.94
8451;BME280;4262;50.980;13.892;2023-02-14T08:34:13;50282.94;;;-142.97;23.45
8451;BME280;4262;50.980;13.892;2023-02-14T08:36:40;50290.75;;;-142.97;23.18
8451;BME280;4262;50.980;13.892;2023-02-14T08:39:08;50306.34;;;-142.97;22.85
8451;BME280;4262;50.980;13.892;2023-02-14T08:41:35;50290.75;;;-142.97;23.14
8451;BME280;4262;50.980;13.892;2023-02-14T08:44:02;50275.16;;;-142.97;22.86
8451;BME280;4262;50.980;13.892;2023-02-14T08:46:28;50286.84;;;-142.97;22.79
8451;BME280;4262;50.980;13.892;2023-02-14T08:48:56;50288.78;;;-142.97;22.97
8451;BME280;4262;50.980;13.892;2023-02-14T08:51:23;50292.69;;;-142.97;23.12
8451;BME280;4262;50.980;13.892;2023-02-14T08:53:50;50286.84;;;-142.97;22.86
8451;BME280;4262;50.980;13.892;2023-02-14T08:56:17;50271.25;;;-142.97;22.83
8451;BME280;4262;50.980;13.892;2023-02-14T08:58:45;50312.19;;;-142.97;23.12
8451;BME280;4262;50.980;13.892;2023-02-14T09:01:14;50279.03;;;-142.97;23.39
8451;BME280;4262;50.980;13.892;2023-02-14T09:03:41;50288.78;;;-142.97;23.19
8451;BME280;4262;50.980;13.892;2023-02-14T09:06:11;50318.03;;;-142.97;22.79
8451;BME280;4262;50.980;13.892;2023-02-14T09:08:42;50271.25;;;-142.97;23.01
8451;BME280;4262;50.980;13.892;2023-02-14T09:11:11;50282.94;;;-142.97;23.20
8451;BME280;4262;50.980;13.892;2023-02-14T09:13:38;50269.28;;;-142.97;22.76
8451;BME280;4262;50.980;13.892;2023-02-14T09:16:07;50281.00;;;-142.97;22.77
8451;BME280;4262;50.980;13.892;2023-02-14T09:18:35;50277.09;;;-142.97;22.68
8451;BME280;4262;50.980;13.892;2023-02-14T09:21:06;50304.38;;;-142.97;23.02
8451;BME280;4262;50.980;13.892;2023-02-14T09:23:34;50306.34;;;-142.97;22.76
8451;BME280;4262;50.980;13.892;2023-02-14T09:26:05;50263.44;;;-142.97;22.67
8451;BME280;4262;50.980;13.892;2023-02-14T09:28:33;50263.44;;;-142.97;22.86
8451;BME280;4262;50.980;13.892;2023-02-14T09:31:08;50286.84;;;-142.97;22.72
8451;BME280;4262;50.980;13.892;2023-02-14T09:33:35;50279.03;;;-142.97;22.64
8451;BME280;4262;50.980;13.892;2023-02-14T09:36:02;50281.00;;;-142.97;23.08
8451;BME280;4262;50.980;13.892;2023-02-14T09:38:47;50292.69;;;-142.97;22.40
8451;BME280;4262;50.980;13.892;2023-02-14T09:44:24;50259.56;;;-142.97;22.76
8451;BME280;4262;50.980;13.892;2023-02-14T09:46:52;50294.63;;;-142.97;22.56
8451;BME280;4262;50.980;13.892;2023-02-14T09:49:28;50284.91;;;-142.97;22.35
8451;BME280;4262;50.980;13.892;2023-02-14T09:51:56;50265.41;;;-142.97;22.57
8451;BME280;4262;50.980;13.892;2023-02-14T09:54:26;50279.03;;;-142.97;22.21
8451;BME280;4262;50.980;13.892;2023-02-14T09:56:56;50265.41;;;-142.97;22.52
8451;BME280;4262;50.980;13.892;2023-02-14T09:59:28;50275.16;;;-142.97;22.49
8451;BME280;4262;50.980;13.892;2023-02-14T10:02:08;50273.19;;;-142.97;22.45
8451;BME280;4262;50.980;13.892;2023-02-14T10:04:50;50279.03;;;-142.97;22.43
8451;BME280;4262;50.980;13.892;2023-02-14T10:07:29;50265.41;;;-142.97;22.69
8451;BME280;4262;50.980;13.892;2023-02-14T10:10:02;50271.25;;;-142.97;22.64
8451;BME280;4262;50.980;13.892;2023-02-14T10:12:37;50267.34;;;-142.97;22.74
8451;BME280;4262;50.980;13.892;2023-02-14T10:15:12;50290.75;;;-142.97;22.97
8451;BME280;4262;50.980;13.892;2023-02-14T10:17:43;50253.69;;;-142.97;23.03
8451;BME280;4262;50.980;13.892;2023-02-14T10:20:22;50281.00;;;-142.97;22.81
8451;BME280;4262;50.980;13.892;2023-02-14T10:22:55;50298.53;;;-142.97;23.13
8451;BME280;4262;50.980;13.892;2023-02-14T10:25:28;50281.00;;;-142.97;23.32
8451;BME280;4262;50.980;13.892;2023-02-14T10:28:00;50294.63;;;-142.97;23.46
8451;BME280;4262;50.980;13.892;2023-02-14T10:30:35;50263.44;;;-142.97;23.03
8451;BME280;4262;50.980;13.892;2023-02-14T10:33:10;50281.00;;;-142.97;23.20
8451;BME280;4262;50.980;13.892;2023-02-14T10:35:45;50292.69;;;-142.97;23.27
8451;BME280;4262;50.980;13.892;2023-02-14T10:38:26;50282.94;;;-142.97;22.96
8451;BME280;4262;50.980;13.892;2023-02-14T10:41:13;50296.59;;;-142.97;23.26
8451;BME280;4262;50.980;13.892;2023-02-14T10:43:48;50271.25;;;-142.97;23.41
8451;BME280;4262;50.980;13.892;2023-02-14T10:46:26;50242.00;;;-142.97;23.35
8451;BME280;4262;50.980;13.892;2023-02-14T10:49:02;50255.66;;;-142.97;23.49
8451;BME280;4262;50.980;13.892;2023-02-14T10:51:38;50306.34;;;-142.97;23.44
8451;BME280;4262;50.980;13.892;2023-02-14T10:54:17;50269.28;;;-142.97;23.13
8451;BME280;4262;50.980;13.892;2023-02-14T10:56:49;50279.03;;;-142.97;23.39
8451;BME280;4262;50.980;13.892;2023-02-14T10:59:20;50281.00;;;-142.97;23.38
8451;BME280;4262;50.980;13.892;2023-02-14T11:01:50;50257.59;;;-142.97;23.30
8451;BME280;4262;50.980;13.892;2023-02-14T11:04:19;50286.84;;;-142.97;23.91
8451;BME280;4262;50.980;13.892;2023-02-14T11:06:49;50316.09;;;-142.97;23.61
8451;BME280;4262;50.980;13.892;2023-02-14T11:09:16;50288.78;;;-142.97;23.66
8451;BME280;4262;50.980;13.892;2023-02-14T11:11:47;50267.34;;;-142.97;23.22
8451;BME280;4262;50.980;13.892;2023-02-14T11:14:22;50284.91;;;-142.97;23.69
8451;BME280;4262;50.980;13.892;2023-02-14T11:16:50;50296.59;;;-142.97;23.14
8451;BME280;4262;50.980;13.892;2023-02-14T11:19:22;50269.28;;;-142.97;23.12
8451;BME280;4262;50.980;13.892;2023-02-14T11:21:51;50261.50;;;-142.97;23.33
8451;BME280;4262;50.980;13.892;2023-02-14T11:24:24;50298.53;;;-142.97;23.71
8451;BME280;4262;50.980;13.892;2023-02-14T11:26:53;50259.56;;;-142.97;23.54
8451;BME280;4262;50.980;13.892;2023-02-14T11:29:26;50284.91;;;-142.97;23.05
8451;BME280;4262;50.980;13.892;2023-02-14T11:31:54;50290.75;;;-142.97;23.27
8451;BME280;4262;50.980;13.892;2023-02-14T11:34:31;50310.25;;;-142.97;23.42
8451;BME280;4262;50.980;13.892;2023-02-14T11:36:59;50296.59;;;-142.97;23.50
8451;BME280;4262;50.980;13.892;2023-02-14T11:39:28;50294.63;;;-142.97;22.98
8451;BME280;4262;50.980;13.892;2023-02-14T11:41:59;50286.84;;;-142.97;23.30
8451;BME280;4262;50.980;13.892;2023-02-14T11:44:30;50259.56;;;-142.97;23.98
8451;BME280;4262;50.980;13.892;2023-02-14T11:47:15;50261.50;;;-142.97;23.60
8451;BME280;4262;50.980;13.892;2023-02-14T11:49:53;50273.19;;;-142.97;23.26
8451;BME280;4262;50.980;13.892;2023-02-14T11:52:20;50251.75;;;-142.97;23.51
8451;BME280;4262;50.980;13.892;2023-02-14T11:54:51;50275.16;;;-142.97;23.26
8451;BME280;4262;50.980;13.892;2023-02-14T11:57:22;50263.44;;;-142.97;23.27
8451;BME280;4262;50.980;13.892;2023-02-14T11:59:53;50273.19;;;-142.97;23.14
8451;BME280;4262;50.980;13.892;2023-02-14T12:02:24;50271.25;;;-142.97;23.09
8451;BME280;4262;50.980;13.892;2023-02-14T12:04:55;50263.44;;;-142.97;23.26
8451;BME280;4262;50.980;13.892;2023-02-14T12:07:25;50281.00;;;-142.97;23.28
8451;BME280;4262;50.980;13.892;2023-02-14T12:10:16;50269.28;;;-142.97;22.94
8451;BME280;4262;50.980;13.892;2023-02-14T12:12:54;50259.56;;;-142.97;22.68
8451;BME280;4262;50.980;13.892;2023-02-14T12:15:34;50271.25;;;-142.97;23.04
8451;BME280;4262;50.980;13.892;2023-02-14T12:20:55;50275.16;;;-142.97;23.18
8451;BME280;4262;50.980;13.892;2023-02-14T12:23:31;50271.25;;;-142.97;23.34
8451;BME280;4262;50.980;13.892;2023-02-14T12:26:05;50269.28;;;-142.97;23.75
8451;BME280;4262;50.980;13.892;2023-02-14T12:28:40;50284.91;;;-142.97;23.53
8451;BME280;4262;50.980;13.892;2023-02-14T12:31:10;50251.75;;;-142.97;23.25
8451;BME280;4262;50.980;13.892;2023-02-14T12:33:38;50238.09;;;-142.97;23.65
8451;BME280;4262;50.980;13.892;2023-02-14T12:36:15;50275.16;;;-142.97;23.39
8451;BME280;4262;50.980;13.892;2023-02-14T12:38:52;50255.66;;;-142.97;23.38
8451;BME280;4262;50.980;13.892;2023-02-14T12:41:35;50277.09;;;-142.97;23.16
8451;BME280;4262;50.980;13.892;2023-02-14T12:44:11;50271.25;;;-142.97;23.03
8451;BME280;4262;50.980;13.892;2023-02-14T12:47:04;50275.16;;;-142.97;23.29
8451;BME280;4262;50.980;13.892;2023-02-14T12:49:54;50279.03;;;-142.97;22.95
8451;BME280;4262;50.980;13.892;2023-02-14T12:52:38;50255.66;;;-142.97;23.01
8451;BME280;4262;50.980;13.892;2023-02-14T12:55:25;50282.94;;;-142.97;23.10
8451;BME280;4262;50.980;13.892;2023-02-14T12:57:59;50306.34;;;-142.97;23.25
8451;BME280;4262;50.980;13.892;2023-02-14T13:00:36;50281.00;;;-142.97;23.45
8451;BME280;4262;50.980;13.892;2023-02-14T13:03:22;50275.16;;;-142.97;23.47
8451;BME280;4262;50.980;13.892;2023-02-14T13:05:57;50265.41;;;-142.97;23.60
8451;BME280;4262;50.980;13.892;2023-02-14T13:08:40;50253.69;;;-142.97;24.00
8451;BME280;4262;50.980;13.892;2023-02-14T13:11:18;50245.91;;;-142.97;23.49
8451;BME280;4262;50.980;13.892;2023-02-14T13:13:54;50275.16;;;-142.97;23.38
8451;BME280;4262;50.980;13.892;2023-02-14T13:16:36;50300.50;;;-142.97;23.47
8451;BME280;4262;50.980;13.892;2023-02-14T13:19:12;50277.09;;;-142.97;22.96
8451;BME280;4262;50.980;13.892;2023-02-14T13:21:43;50277.09;;;-142.97;23.27
8451;BME280;4262;50.980;13.892;2023-02-14T13:24:15;50261.50;;;-142.97;23.35
8451;BME280;4262;50.980;13.892;2023-02-14T13:26:44;50257.59;;;-142.97;23.19
8451;BME280;4262;50.980;13.892;2023-02-14T13:29:16;50271.25;;;-142.97;23.15
8451;BME280;4262;50.980;13.892;2023-02-14T13:31:46;50265.41;;;-142.97;23.35
8451;BME280;4262;50.980;13.892;2023-02-14T13:34:22;50255.66;;;-142.97;23.29
8451;BME280;4262;50.980;13.892;2023-02-14T13:36:51;50292.69;;;-142.97;22.79
8451;BME280;4262;50.980;13.892;2023-02-14T13:39:30;50279.03;;;-142.97;22.78
8451;BME280;4262;50.980;13.892;2023-02-14T13:41:58;50279.03;;;-142.97;22.50
8451;BME280;4262;50.980;13.892;2023-02-14T13:44:41;50247.84;;;-142.97;22.37
8451;BME280;4262;50.980;13.892;2023-02-14T13:47:17;50226.41;;;-142.97;22.43
8451;BME280;4262;50.980;13.892;2023-02-14T13:49:48;50253.69;;;-142.97;22.86
8451;BME280;4262;50.980;13.892;2023-02-14T13:52:37;50249.81;;;-142.97;23.22
8451;BME280;4262;50.980;13.892;2023-02-14T13:55:07;50277.09;;;-142.97;22.91
8451;BME280;4262;50.980;13.892;2023-02-14T13:57:35;50282.94;;;-142.97;23.39
8451;BME280;4262;50.980;13.892;2023-02-14T14:00:34;50251.75;;;-142.97;23.58
8451;BME280;4262;50.980;13.892;2023-02-14T14:03:03;50265.41;;;-142.97;23.05
8451;BME280;4262;50.980;13.892;2023-02-14T14:05:45;50284.91;;;-142.97;22.96
8451;BME280;4262;50.980;13.892;2023-02-14T14:10:59;50263.44;;;-142.97;23.20
8451;BME280;4262;50.980;13.892;2023-02-14T14:13:55;50257.59;;;-142.97;23.75
8451;BME280;4262;50.980;13.892;2023-02-14T14:16:28;50236.16;;;-142.97;23.72
8451;BME280;4262;50.980;13.892;2023-02-14T14:18:59;50226.41;;;-142.97;23.32
8451;BME280;4262;50.980;13.892;2023-02-14T14:21:28;50243.94;;;-142.97;23.38
8451;BME280;4262;50.980;13.892;2023-02-14T14:24:20;50185.47;;;-142.97;22.81
8451;BME280;4262;50.980;13.892;2023-02-14T14:26:51;50175.72;;;-142.97;22.66
8451;BME280;4262;50.980;13.892;2023-02-14T14:29:26;50189.38;;;-142.97;22.45
8451;BME280;4262;50.980;13.892;2023-02-14T14:31:54;50214.72;;;-142.97;22.26
8451;BME280;4262;50.980;13.892;2023-02-14T14:34:23;50185.47;;;-142.97;22.28
8451;BME280;4262;50.980;13.892;2023-02-14T14:36:59;50187.41;;;-142.97;21.63
8451;BME280;4262;50.980;13.892;2023-02-14T14:39:30;50193.25;;;-142.97;21.77
8451;BME280;4262;50.980;13.892;2023-02-14T14:42:05;50177.66;;;-142.97;22.10
8451;BME280;4262;50.980;13.892;2023-02-14T14:44:34;50179.63;;;-142.97;21.25
8451;BME280;4262;50.980;13.892;2023-02-14T14:47:04;50210.81;;;-142.97;21.34
8451;BME280;4262;50.980;13.892;2023-02-14T14:49:32;50201.06;;;-142.97;21.33
8451;BME280;4262;50.980;13.892;2023-02-14T14:51:59;50249.81;;;-142.97;21.71
8451;BME280;4262;50.980;13.892;2023-02-14T14:54:28;50259.56;;;-142.97;21.67
8451;BME280;4262;50.980;13.892;2023-02-14T14:56:58;50240.06;;;-142.97;22.06
8451;BME280;4262;50.980;13.892;2023-02-14T14:59:28;50220.56;;;-142.97;22.06
8451;BME280;4262;50.980;13.892;2023-02-14T15:01:56;50189.38;;;-142.97;21.64
8451;BME280;4262;50.980;13.892;2023-02-14T15:04:26;50220.56;;;-142.97;21.56
8451;BME280;4262;50.980;13.892;2023-02-14T15:06:56;50220.56;;;-142.97;21.75
8451;BME280;4262;50.980;13.892;2023-02-14T15:09:29;50224.47;;;-142.97;21.70
8451;BME280;4262;50.980;13.892;2023-02-14T15:11:57;50224.47;;;-142.97;21.16
8451;BME280;4262;50.980;13.892;2023-02-14T15:14:44;50185.47;;;-142.97;21.18
8451;BME280;4262;50.980;13.892;2023-02-14T15:17:18;50203.00;;;-142.97;21.01
8451;BME280;4262;50.980;13.892;2023-02-14T15:19:47;50191.31;;;-142.97;21.22
8451;BME280;4262;50.980;13.892;2023-02-14T15:22:20;50232.25;;;-142.97;21.12
8451;BME280;4262;50.980;13.892;2023-02-14T15:24:49;50179.63;;;-142.97;20.68
8451;BME280;4262;50.980;13.892;2023-02-14T15:27:20;50201.06;;;-142.97;20.86
8451;BME280;4262;50.980;13.892;2023-02-14T15:29:54;50204.97;;;-142.97;21.14
8451;BME280;4262;50.980;13.892;2023-02-14T15:32:22;50234.19;;;-142.97;21.22
8451;BME280;4262;50.980;13.892;2023-02-14T15:34:50;50189.38;;;-142.97;21.10
8451;BME280;4262;50.980;13.892;2023-02-14T15:37:19;50242.00;;;-142.97;21.41
8451;BME280;4262;50.980;13.892;2023-02-14T15:39:48;50238.09;;;-142.97;21.96
8451;BME280;4262;50.980;13.892;2023-02-14T15:42:19;50204.97;;;-142.97;22.04
8451;BME280;4262;50.980;13.892;2023-02-14T15:44:47;50281.00;;;-142.97;22.21
8451;BME280;4262;50.980;13.892;2023-02-14T15:47:15;50242.00;;;-142.97;22.44
8451;BME280;4262;50.980;13.892;2023-02-14T15:49:43;50269.28;;;-142.97;22.64
8451;BME280;4262;50.980;13.892;2023-02-14T15:52:12;50273.19;;;-142.97;22.64
8451;BME280;4262;50.980;13.892;2023-02-14T15:54:44;50300.50;;;-142.97;22.54
8451;BME280;4262;50.980;13.892;2023-02-14T15:57:19;50273.19;;;-142.97;22.58
8451;BME280;4262;50.980;13.892;2023-02-14T15:59:46;50296.59;;;-142.97;22.58
8451;BME280;4262;50.980;13.892;2023-02-14T16:02:25;50312.19;;;-142.97;23.21
8451;BME280;4262;50.980;13.892;2023-02-14T16:04:53;50300.50;;;-142.97;23.41
8451;BME280;4262;50.980;13.892;2023-02-14T16:07:23;50298.53;;;-142.97;23.06
8451;BME280;4262;50.980;13.892;2023-02-14T16:10:19;50294.63;;;-142.97;22.95
8451;BME280;4262;50.980;13.892;2023-02-14T16:12:59;50277.09;;;-142.97;23.10
8451;BME280;4262;50.980;13.892;2023-02-14T16:15:27;50286.84;;;-142.97;22.96
8451;BME280;4262;50.980;13.892;2023-02-14T16:17:54;50288.78;;;-142.97;23.35
8451;BME280;4262;50.980;13.892;2023-02-14T16:20:37;50292.69;;;-142.97;23.25
8451;BME280;4262;50.980;13.892;2023-02-14T16:23:29;50310.25;;;-142.97;23.56
8451;BME280;4262;50.980;13.892;2023-02-14T16:25:57;50304.38;;;-142.97;23.42
8451;BME280;4262;50.980;13.892;2023-02-14T16:28:27;50296.59;;;-142.97;23.69
8451;BME280;4262;50.980;13.892;2023-02-14T16:30:56;50282.94;;;-142.97;23.53
8451;BME280;4262;50.980;13.892;2023-02-14T16:33:26;50263.44;;;-142.97;23.40
8451;BME280;4262;50.980;13.892;2023-02-14T16:35:55;50321.94;;;-142.97;23.64
8451;BME280;4262;50.980;13.892;2023-02-14T16:38:26;50279.03;;;-142.97;23.34
8451;BME280;4262;50.980;13.892;2023-02-14T16:40:53;50282.94;;;-142.97;23.41
8451;BME280;4262;50.980;13.892;2023-02-14T16:43:21;50261.50;;;-142.97;23.42
8451;BME280;4262;50.980;13.892;2023-02-14T16:45:47;50335.59;;;-142.97;23.49
8451;BME280;4262;50.980;13.892;2023-02-14T16:48:14;50300.50;;;-142.97;23.63
8451;BME280;4262;50.980;13.892;2023-02-14T16:50:41;50308.28;;;-142.97;23.62
8451;BME280;4262;50.980;13.892;2023-02-14T16:53:17;50300.50;;;-142.97;23.75
8451;BME280;4262;50.980;13.892;2023-02-14T16:55:48;50281.00;;;-142.97;23.51
8451;BME280;4262;50.980;13.892;2023-02-14T16:58:17;50279.03;;;-142.97;23.96
8451;BME280;4262;50.980;13.892;2023-02-14T17:00:46;50292.69;;;-142.97;24.18
8451;BME280;4262;50.980;13.892;2023-02-14T17:03:13;50284.91;;;-142.97;24.08
8451;BME280;4262;50.980;13.892;2023-02-14T17:05:40;50298.53;;;-142.97;24.12
8451;BME280;4262;50.980;13.892;2023-02-14T17:08:09;50281.00;;;-142.97;24.17
8451;BME280;4262;50.980;13.892;2023-02-14T17:10:38;50288.78;;;-142.97;24.01
8451;BME280;4262;50.980;13.892;2023-02-14T17:13:08;50290.75;;;-142.97;23.90
8451;BME280;4262;50.980;13.892;2023-02-14T17:15:36;50243.94;;;-142.97;23.89
8451;BME280;4262;50.980;13.892;2023-02-14T17:18:09;50281.00;;;-142.97;23.75
8451;BME280;4262;50.980;13.892;2023-02-14T17:20:36;50329.72;;;-142.97;23.82
8451;BME280;4262;50.980;13.892;2023-02-14T17:23:03;50310.25;;;-142.97;23.87
8451;BME280;4262;50.980;13.892;2023-02-14T17:25:30;50275.16;;;-142.97;23.94
8451;BME280;4262;50.980;13.892;2023-02-14T17:27:57;50308.28;;;-142.97;24.01
8451;BME280;4262;50.980;13.892;2023-02-14T17:30:25;50288.78;;;-142.97;24.00
8451;BME280;4262;50.980;13.892;2023-02-14T17:32:52;50323.88;;;-142.97;24.66
8451;BME280;4262;50.980;13.892;2023-02-14T17:35:20;50282.94;;;-142.97;24.75
8451;BME280;4262;50.980;13.892;2023-02-14T17:37:47;50275.16;;;-142.97;23.98
8451;BME280;4262;50.980;13.892;2023-02-14T17:40:13;50308.28;;;-142.97;24.21
8451;BME280;4262;50.980;13.892;2023-02-14T17:42:40;50282.94;;;-142.97;24.55
8451;BME280;4262;50.980;13.892;2023-02-14T17:45:08;50284.91;;;-142.97;24.31
8451;BME280;4262;50.980;13.892;2023-02-14T17:47:37;50320.00;;;-142.97;24.36
8451;BME280;4262;50.980;13.892;2023-02-14T17:50:06;50288.78;;;-142.97;24.76